Montrose, CO

8:22 PM MDT on October 01, 2014 (GMT -0600)
Delta | Change Station
CLOSE
Current Station
Airport
Location: Delta,
Elevation: 5194 ft
Nearby Weather Stations

Elev 5194 ft 38.79 °N, 108.07 °W | Updated 7 minutes ago

Mostly Cloudy
Mostly Cloudy
50 °F
Feels Like 50 °F
N
0
Wind Variable Wind from North

Today
High -- | Low -- °F
--% Chance of Precip.
Yesterday
High -- | Low -- °F
Precip. -- in
7:07 AM 6:54 PM
First Quarter, 53% visible
Pressure 30.09 in
Visibility 10.0 miles
Clouds Scattered Clouds 1200 ft
Scattered Clouds 4600 ft
Overcast 9000 ft
Dew Point 46 °F
Humidity 87%
Rainfall 0.25 in
Snow Depth 1 in , 0 in , 1 in
UV 0 out of 12
Pollen 3.80 out of 12
Air Quality Not available.
Flu Activity Not available.
METAR KAJZ 020215Z AUTO 00000KT 10SM TSRA SCT012 SCT046 OVC090 10/08 A3009 RMK AO2 T01000080

More Conditions Fewer Conditions

Pressure 30.09 in
Visibility 10.0 miles
Clouds Scattered Clouds 1200 ft
Scattered Clouds 4600 ft
Overcast 9000 ft
Dew Point 46 °F
Humidity 87%
Rainfall 0.25 in
Snow Depth 1 in , 0 in , 1 in
UV 0 out of 12
Pollen 3.80 out of 12
Air Quality Not available.
Flu Activity Not available.
METAR KAJZ 020215Z AUTO 00000KT 10SM TSRA SCT012 SCT046 OVC090 10/08 A3009 RMK AO2 T01000080

More Conditions Fewer Conditions

10-Day Weather Forecast

Almanac

Astronomy

Oct. 01, 2014 Rise Set
Actual Time 7:07 AM MDT 6:54 PM MDT
Civil Twilight 6:40 AM MDT 7:20 PM MDT
Nautical Twilight 6:10 AM MDT 7:51 PM MDT
Astronomical Twilight 5:39 AM MDT 8:22 PM MDT
Moon 2:07 PM MDT (10/1) No Moon Set
Length of Visible Light 12h 39m
Length of Day
11h 46m
Tomorrow will be 2m 27s shorter.
First Quarter, 53% of the Moon is Illuminated
Today
First Quarter
Oct 8
Full
Oct 15
Last Quarter
Oct 23
New
Oct 30
First Quarter

Today's Extremes

State Highs State Lows

Community

WunderPhotos

Upload Photos

1,758,142 photos uploaded!

WunderBlogs® & News

Nearby

Snow Depth

Station Depth Elevation
Apishapa 1 in 10000 ft
Cascade #2 0 in 8920 ft
Lily Pond 1 in 11000 ft
Mineral Creek 0 in 10040 ft
Independence Pass 188 in 10600 ft

Earthquake Activity

City Distance Mag. Time & Date
No recent earthquake activity has been reported nearby.
Minimum magnitude displayed is 2.5.

Coastal Water Temperatures

Place Temperature
No Stations Reporting

Nearby Weather Stations